Time;durP1;ratioP1;P1;durP2;ratioP2;P2;SDS_P1;SDS_P2;PMS_P1;PMS_P2;Temp;Humidity;BMP_temperature;BMP_pressure;BME280_temperature;BME280_humidity;BME280_pressure;Samples;Min_cycle;Max_cycle;Signal;HPM_P1;HPM_P2
2023/11/15 00:01:32;;;;;;;29.98;7.78;;;;;;;8.96;100.00;100729.22;5043025;28;20377;-73
2023/11/15 00:03:57;;;;;;;30.70;7.32;;;;;;;8.91;100.00;100734.44;5042094;28;20045;-72
2023/11/15 00:06:23;;;;;;;33.72;7.90;;;;;;;8.92;100.00;100741.47;5041618;28;20438;-73
2023/11/15 00:08:48;;;;;;;31.23;7.70;;;;;;;8.94;100.00;100738.84;5043530;28;20025;-72
2023/11/15 00:11:15;;;;;;;31.10;7.85;;;;;;;8.92;100.00;100738.84;5040335;28;20061;-72
2023/11/15 00:13:41;;;;;;;30.42;7.18;;;;;;;8.94;100.00;100750.31;5036472;28;20045;-73
2023/11/15 00:16:06;;;;;;;30.88;7.20;;;;;;;8.92;100.00;100743.25;5043451;28;20029;-72
2023/11/15 00:18:32;;;;;;;28.75;7.05;;;;;;;8.88;100.00;100750.22;5041284;28;20047;-73
2023/11/15 00:20:58;;;;;;;28.27;7.25;;;;;;;8.89;100.00;100757.28;5042090;28;20054;-74
2023/11/15 00:23:23;;;;;;;28.75;6.95;;;;;;;8.88;100.00;100763.41;5042651;28;20146;-74
2023/11/15 00:25:49;;;;;;;31.60;7.13;;;;;;;8.89;100.00;100763.41;5040827;28;20394;-74
2023/11/15 00:28:14;;;;;;;26.83;6.32;;;;;;;8.90;100.00;100770.47;5043665;28;20033;-74
2023/11/15 00:30:40;;;;;;;31.67;7.30;;;;;;;8.93;100.00;100763.44;5038694;28;20427;-75
2023/11/15 00:33:05;;;;;;;30.98;6.75;;;;;;;8.95;100.00;100780.19;5046616;28;20037;-74
2023/11/15 00:35:31;;;;;;;29.25;6.55;;;;;;;8.94;100.00;100779.31;5044756;28;20102;-72
2023/11/15 00:37:57;;;;;;;29.83;6.72;;;;;;;8.95;100.00;100785.44;5045515;28;20026;-74
2023/11/15 00:40:22;;;;;;;27.77;6.53;;;;;;;8.98;100.00;100778.44;5046012;28;20021;-74
2023/11/15 00:42:48;;;;;;;30.30;6.70;;;;;;;8.98;100.00;100780.19;5044452;28;20033;-74
2023/11/15 00:45:14;;;;;;;29.70;6.22;;;;;;;8.99;100.00;100780.22;5047103;28;20021;-74
2023/11/15 00:47:40;;;;;;;30.38;6.38;;;;;;;9.00;100.00;100776.72;5043890;28;20029;-74
2023/11/15 00:50:07;;;;;;;29.70;6.35;;;;;;;9.03;100.00;100786.41;5046396;28;20443;-73
2023/11/15 00:52:33;;;;;;;29.17;6.43;;;;;;;8.96;100.00;100790.75;5044491;28;20476;-73
2023/11/15 00:54:58;;;;;;;31.00;6.60;;;;;;;8.97;100.00;100788.97;5045485;28;20022;-74
2023/11/15 00:57:24;;;;;;;27.90;6.10;;;;;;;8.93;100.00;100792.44;5045822;28;20525;-73
2023/11/15 00:59:53;;;;;;;30.08;6.32;;;;;;;8.89;100.00;100797.69;5044125;28;20037;-73
2023/11/15 01:02:20;;;;;;;30.73;6.38;;;;;;;8.88;100.00;100810.84;5046257;28;20033;-73
2023/11/15 01:04:46;;;;;;;28.08;6.13;;;;;;;8.83;100.00;100800.25;5043768;28;20365;-73
2023/11/15 01:07:12;;;;;;;28.05;6.20;;;;;;;8.83;100.00;100809.94;5046642;28;20025;-73
2023/11/15 01:09:37;;;;;;;30.25;6.15;;;;;;;8.84;100.00;100809.94;5043727;28;20538;-73
2023/11/15 01:12:04;;;;;;;30.00;7.00;;;;;;;8.84;100.00;100816.94;5045710;28;20072;-73
2023/11/15 01:14:30;;;;;;;29.90;6.35;;;;;;;8.87;100.00;100817.00;5044462;28;20117;-73
2023/11/15 01:16:55;;;;;;;30.45;6.45;;;;;;;8.87;100.00;100825.78;5044314;28;20108;-73
2023/11/15 01:19:20;;;;;;;29.25;6.50;;;;;;;8.91;100.00;100834.59;5046031;28;20112;-73
2023/11/15 01:21:46;;;;;;;29.27;6.50;;;;;;;8.94;100.00;100833.75;5043027;28;20080;-73
2023/11/15 01:24:11;;;;;;;30.73;6.97;;;;;;;8.94;100.00;100829.41;5046195;28;20484;-73
2023/11/15 01:26:37;;;;;;;30.00;6.75;;;;;;;8.95;100.00;100846.97;5043693;28;20033;-73
2023/11/15 01:29:02;;;;;;;30.52;6.95;;;;;;;8.94;100.00;100845.22;5045289;28;20541;-73
2023/11/15 01:31:27;;;;;;;31.85;6.88;;;;;;;8.93;100.00;100851.34;5043140;28;20120;-73
2023/11/15 01:33:53;;;;;;;29.05;6.60;;;;;;;8.94;100.00;100855.75;5043831;28;20034;-73
2023/11/15 01:36:18;;;;;;;31.52;6.75;;;;;;;8.94;100.00;100852.22;5045594;28;20132;-73
2023/11/15 01:38:44;;;;;;;29.17;6.15;;;;;;;8.94;100.00;100849.59;5042894;28;20127;-72
2023/11/15 01:41:10;;;;;;;29.27;6.63;;;;;;;8.97;100.00;100855.78;5046096;28;20025;-73
2023/11/15 01:43:35;;;;;;;27.95;6.20;;;;;;;8.95;100.00;100856.63;5043182;28;20072;-72
2023/11/15 01:46:02;;;;;;;29.23;6.60;;;;;;;8.95;100.00;100867.19;5044735;28;20127;-72
2023/11/15 01:48:30;;;;;;;30.10;6.50;;;;;;;8.97;100.00;100870.72;5044119;28;20116;-73
2023/11/15 01:50:56;;;;;;;29.92;6.30;;;;;;;8.97;100.00;100875.97;5043960;28;20034;-72
2023/11/15 01:53:22;;;;;;;28.52;6.25;;;;;;;8.94;100.00;100876.84;5045183;28;20021;-72
2023/11/15 01:55:49;;;;;;;28.38;6.53;;;;;;;8.95;100.00;100878.59;5042795;28;20084;-72
2023/11/15 01:58:15;;;;;;;28.10;6.18;;;;;;;8.96;100.00;100890.06;5045737;28;20060;-72
2023/11/15 02:00:41;;;;;;;31.17;6.50;;;;;;;8.95;100.00;100889.16;5042436;28;20443;-72
2023/11/15 02:03:06;;;;;;;28.05;6.15;;;;;;;8.93;100.00;100900.53;5044937;28;20041;-73
2023/11/15 02:05:32;;;;;;;29.88;5.70;;;;;;;8.83;100.00;100897.81;5043278;28;20112;-72
2023/11/15 02:07:57;;;;;;;28.05;6.57;;;;;;;8.80;100.00;100900.41;5043762;28;20025;-73
2023/11/15 02:10:23;;;;;;;26.17;6.03;;;;;;;8.80;100.00;100910.06;5044587;28;20029;-72
2023/11/15 02:12:48;;;;;;;28.95;6.30;;;;;;;8.84;100.00;100911.84;5042383;28;20395;-72
2023/11/15 02:15:15;;;;;;;28.13;6.40;;;;;;;8.89;100.00;100907.53;5045500;28;20029;-74
2023/11/15 02:17:45;;;;;;;28.48;6.05;;;;;;;8.92;100.00;100914.59;5042163;28;20036;-74
2023/11/15 02:20:10;;;;;;;32.75;6.70;;;;;;;8.94;100.00;100923.41;5045158;28;20064;-74
2023/11/15 02:22:45;;;;;;;28.58;6.47;;;;;;;8.95;100.00;100919.91;5042742;28;20069;-74
2023/11/15 02:25:10;;;;;;;28.60;6.13;;;;;;;8.94;100.00;100921.69;5045238;28;20029;-73
2023/11/15 02:27:36;;;;;;;32.08;6.90;;;;;;;8.95;100.00;100920.78;5042335;28;20079;-74
2023/11/15 02:30:01;;;;;;;29.48;6.30;;;;;;;8.96;100.00;100921.69;5043706;28;20064;-73
2023/11/15 02:32:26;;;;;;;32.50;6.85;;;;;;;8.97;100.00;100926.97;5043556;28;20473;-73
2023/11/15 02:34:52;;;;;;;26.60;5.90;;;;;;;8.99;100.00;100934.91;5042363;28;20056;-74
2023/11/15 02:37:17;;;;;;;29.23;6.20;;;;;;;8.99;100.00;100938.41;5043553;28;20052;-74
2023/11/15 02:39:43;;;;;;;28.25;5.80;;;;;;;9.00;100.00;100945.47;5041443;28;20436;-72
2023/11/15 02:42:08;;;;;;;29.15;6.63;;;;;;;8.97;100.00;100940.16;5044412;28;20024;-73
2023/11/15 02:44:35;;;;;;;31.25;5.97;;;;;;;8.94;100.00;100944.50;5042873;28;20033;-75
2023/11/15 02:47:00;;;;;;;27.45;6.40;;;;;;;8.89;100.00;100933.91;5043458;28;20357;-73
2023/11/15 02:49:26;;;;;;;30.67;6.75;;;;;;;8.86;100.00;100954.97;5043426;28;20028;-73
2023/11/15 02:51:51;;;;;;;30.65;6.68;;;;;;;8.89;100.00;100947.97;5042173;28;20434;-74
2023/11/15 02:54:16;;;;;;;28.50;6.15;;;;;;;8.89;100.00;100944.44;5044223;28;20516;-73
2023/11/15 02:56:42;;;;;;;29.42;6.28;;;;;;;8.86;100.00;100955.81;5041247;28;20030;-74
2023/11/15 02:59:07;;;;;;;28.75;6.30;;;;;;;8.88;100.00;100951.47;5044245;28;20108;-73
2023/11/15 03:01:33;;;;;;;32.60;6.68;;;;;;;8.85;100.00;100948.81;5042243;28;20082;-73
2023/11/15 03:03:58;;;;;;;26.92;5.85;;;;;;;8.83;100.00;100958.44;5043079;28;20149;-73
2023/11/15 03:06:24;;;;;;;28.80;6.28;;;;;;;8.84;100.00;100959.31;5043458;28;20052;-73
2023/11/15 03:08:50;;;;;;;31.75;7.00;;;;;;;8.83;100.00;100957.56;5023632;28;20469;-73
2023/11/15 03:11:15;;;;;;;29.35;6.22;;;;;;;8.81;100.00;100964.53;5044844;28;20072;-73
2023/11/15 03:13:41;;;;;;;29.88;6.13;;;;;;;8.83;100.00;100965.47;5041018;28;20506;-73
2023/11/15 03:16:07;;;;;;;29.75;6.25;;;;;;;8.84;100.00;100962.84;5043576;28;20036;-73
2023/11/15 03:18:32;;;;;;;31.83;6.93;;;;;;;8.83;100.00;100968.09;5041099;28;20025;-73
2023/11/15 03:20:58;;;;;;;29.77;6.70;;;;;;;8.84;100.00;100959.31;5042400;28;20464;-74
2023/11/15 03:23:24;;;;;;;31.52;6.82;;;;;;;8.84;100.00;100970.75;5043197;28;20037;-73
2023/11/15 03:25:50;;;;;;;31.08;6.32;;;;;;;8.85;100.00;100972.53;5041569;28;20120;-73
2023/11/15 03:28:16;;;;;;;28.30;7.40;;;;;;;8.86;100.00;100979.56;5044523;28;20115;-73
2023/11/15 03:30:41;;;;;;;32.67;7.45;;;;;;;8.86;100.00;100969.00;5040998;28;20033;-73
2023/11/15 03:33:07;;;;;;;30.30;8.40;;;;;;;8.88;100.00;100987.47;5043700;28;20472;-73
2023/11/15 03:35:32;;;;;;;35.38;9.43;;;;;;;8.93;100.00;100980.53;5041825;28;20567;-73
2023/11/15 03:37:58;;;;;;;33.05;9.27;;;;;;;8.92;100.00;100978.75;5042274;28;20491;-73
2023/11/15 03:40:24;;;;;;;33.75;9.38;;;;;;;8.89;100.00;100992.78;5043385;28;20052;-73
2023/11/15 03:42:50;;;;;;;34.85;9.43;;;;;;;8.88;100.00;100987.47;5040962;28;20029;-72
2023/11/15 03:45:16;;;;;;;33.75;9.57;;;;;;;8.89;100.00;100987.50;5044351;28;20037;-72
2023/11/15 03:47:41;;;;;;;34.13;9.15;;;;;;;8.87;100.00;100985.75;5040894;28;20030;-72
2023/11/15 03:50:07;;;;;;;32.47;9.38;;;;;;;8.86;100.00;100984.81;5043282;28;20033;-72
2023/11/15 03:52:33;;;;;;;33.72;8.68;;;;;;;8.87;100.00;100985.75;5041989;28;20036;-72
2023/11/15 03:54:59;;;;;;;33.75;8.98;;;;;;;8.82;100.00;100993.56;5042118;28;20068;-73
2023/11/15 03:57:26;;;;;;;31.70;9.05;;;;;;;8.82;100.00;100998.81;5043079;28;20037;-72
2023/11/15 03:59:53;;;;;;;35.72;10.05;;;;;;;8.83;100.00;101010.28;5041451;28;20030;-72
2023/11/15 04:02:19;;;;;;;33.65;10.65;;;;;;;8.84;100.00;101009.38;5043770;28;20459;-72
2023/11/15 04:04:45;;;;;;;33.55;11.75;;;;;;;8.83;100.00;100999.72;5041206;28;20034;-73
2023/11/15 04:07:10;;;;;;;38.67;12.90;;;;;;;8.83;100.00;101015.56;5046404;28;20040;-72
2023/11/15 04:09:36;;;;;;;35.80;13.50;;;;;;;8.81;100.00;101019.91;5045142;28;20037;-73
2023/11/15 04:12:02;;;;;;;37.22;15.23;;;;;;;8.80;100.00;101016.38;5046144;28;20129;-72
2023/11/15 04:14:28;;;;;;;32.75;13.27;;;;;;;8.75;100.00;101011.91;5046347;28;20060;-72
2023/11/15 04:16:53;;;;;;;34.25;13.60;;;;;;;8.60;100.00;101021.34;5045206;28;20475;-72
2023/11/15 04:19:21;;;;;;;32.25;13.43;;;;;;;8.66;100.00;101023.19;5047262;28;20025;-71
2023/11/15 04:21:47;;;;;;;35.65;16.13;;;;;;;8.64;100.00;101027.56;5044322;28;20033;-71
2023/11/15 04:24:12;;;;;;;38.33;19.00;;;;;;;8.67;100.00;101036.41;5040171;28;20388;-71
2023/11/15 04:26:38;;;;;;;44.10;23.70;;;;;;;8.68;100.00;101037.31;5046781;28;20032;-71
2023/11/15 04:29:03;;;;;;;47.75;26.73;;;;;;;8.70;100.00;101044.34;5045284;28;20037;-71
2023/11/15 04:31:29;;;;;;;41.22;22.95;;;;;;;8.72;100.00;101041.72;5045350;28;20029;-72
2023/11/15 04:33:55;;;;;;;41.80;20.10;;;;;;;8.67;100.00;101041.66;5046241;28;20112;-71
2023/11/15 04:36:20;;;;;;;41.15;19.45;;;;;;;8.66;100.00;101039.88;5044195;28;20145;-72
2023/11/15 04:38:47;;;;;;;36.28;17.25;;;;;;;8.69;100.00;101044.31;5047529;28;20436;-71
2023/11/15 04:41:12;;;;;;;41.47;19.02;;;;;;;8.64;100.00;101046.91;5043760;28;20083;-71
2023/11/15 04:43:39;;;;;;;38.92;18.05;;;;;;;8.61;100.00;101052.13;5046620;28;20025;-72
2023/11/15 04:46:04;;;;;;;37.63;17.42;;;;;;;8.60;100.00;101060.88;5044829;28;20040;-72
2023/11/15 04:48:30;;;;;;;40.50;19.35;;;;;;;8.61;100.00;101057.41;5045280;28;20524;-72
2023/11/15 04:50:57;;;;;;;43.63;19.30;;;;;;;8.59;100.00;101052.97;5045920;28;20128;-72
2023/11/15 04:53:24;;;;;;;41.55;18.05;;;;;;;8.55;100.00;101057.31;5044368;28;20036;-72
2023/11/15 04:55:50;;;;;;;41.80;19.13;;;;;;;8.55;100.00;101071.34;5046834;28;20031;-72
2023/11/15 04:58:15;;;;;;;42.05;19.20;;;;;;;8.57;100.00;101081.91;5043683;28;20065;-71
2023/11/15 05:00:41;;;;;;;42.63;19.33;;;;;;;8.57;100.00;101076.66;5046505;28;20056;-72
2023/11/15 05:03:06;;;;;;;44.65;20.50;;;;;;;8.57;100.00;101070.50;5043095;28;20036;-72
2023/11/15 05:05:32;;;;;;;46.30;21.52;;;;;;;8.57;100.00;101084.56;5045157;28;20029;-71
2023/11/15 05:07:57;;;;;;;44.97;22.42;;;;;;;8.57;100.00;101084.56;5045430;28;20123;-71
2023/11/15 05:10:24;;;;;;;45.70;21.58;;;;;;;8.59;100.00;101080.22;5044195;28;20033;-72
2023/11/15 05:12:50;;;;;;;46.75;21.52;;;;;;;8.57;100.00;101074.00;5046306;28;20391;-71
2023/11/15 05:15:15;;;;;;;43.17;19.95;;;;;;;8.58;100.00;101093.34;5042662;28;20022;-72
2023/11/15 05:17:40;;;;;;;40.53;19.73;;;;;;;8.56;100.00;101088.03;5046325;28;20029;-72
2023/11/15 05:20:07;;;;;;;43.28;19.25;;;;;;;8.55;100.00;101074.00;5043917;28;20095;-72
2023/11/15 05:22:32;;;;;;;42.05;18.63;;;;;;;8.54;100.00;101093.28;5044828;28;20038;-72
2023/11/15 05:24:57;;;;;;;40.08;18.13;;;;;;;8.53;100.00;101085.38;5045261;28;20029;-72
2023/11/15 05:27:23;;;;;;;41.67;18.17;;;;;;;8.51;100.00;101093.25;5043579;28;20392;-72
2023/11/15 05:29:49;;;;;;;38.83;17.70;;;;;;;8.53;100.00;101091.53;5046157;28;20451;-71
2023/11/15 05:32:14;;;;;;;38.22;17.10;;;;;;;8.50;100.00;101094.13;5043049;28;20040;-71
2023/11/15 05:34:40;;;;;;;38.33;15.82;;;;;;;8.51;100.00;101089.72;5045576;28;20037;-70
2023/11/15 05:37:05;;;;;;;37.97;15.98;;;;;;;8.50;100.00;101090.59;5043574;28;20135;-71
2023/11/15 05:39:31;;;;;;;36.47;15.88;;;;;;;8.53;100.00;101101.16;5044521;28;20088;-70
2023/11/15 05:41:56;;;;;;;35.95;14.13;;;;;;;8.49;100.00;101100.25;5044831;28;20079;-70
2023/11/15 05:44:22;;;;;;;37.72;14.52;;;;;;;8.46;100.00;101104.56;5043167;28;20042;-70
2023/11/15 05:46:47;;;;;;;38.92;15.35;;;;;;;8.43;100.00;101096.56;5045927;28;20028;-71
2023/11/15 05:49:12;;;;;;;36.33;14.88;;;;;;;8.42;100.00;101098.34;5042569;28;20095;-70
2023/11/15 05:51:40;;;;;;;35.58;15.02;;;;;;;8.42;100.00;101100.97;5045215;28;20047;-71
2023/11/15 05:54:05;;;;;;;34.97;14.88;;;;;;;8.38;100.00;101120.22;5043325;28;20036;-70
2023/11/15 05:56:32;;;;;;;34.85;14.13;;;;;;;8.40;100.00;101101.78;5044293;28;20075;-70
2023/11/15 05:58:57;;;;;;;37.58;14.38;;;;;;;8.36;100.00;101109.66;5044682;28;20031;-70
2023/11/15 06:01:24;;;;;;;35.40;13.82;;;;;;;8.35;100.00;101109.63;5042871;28;20116;-70
2023/11/15 06:03:50;;;;;;;37.65;14.30;;;;;;;8.32;100.00;101106.94;5045382;28;20075;-70
2023/11/15 06:06:16;;;;;;;35.25;14.48;;;;;;;8.32;100.00;101106.94;5042262;28;20037;-70
2023/11/15 06:08:42;;;;;;;35.33;14.30;;;;;;;8.27;100.00;101109.50;5045164;28;20035;-70
2023/11/15 06:11:07;;;;;;;36.80;14.68;;;;;;;8.25;100.00;101108.56;5042723;28;20032;-70
2023/11/15 06:13:37;;;;;;;37.58;15.40;;;;;;;8.25;100.00;101121.72;5044091;28;20025;-70
2023/11/15 06:16:03;;;;;;;39.10;16.85;;;;;;;8.27;100.00;101125.31;5043334;28;20021;-70
2023/11/15 06:18:29;;;;;;;44.05;17.92;;;;;;;8.25;100.00;101119.09;5043326;28;20120;-71
2023/11/15 06:20:55;;;;;;;39.47;17.15;;;;;;;8.25;100.00;101120.84;5044646;28;20116;-70
2023/11/15 06:23:20;;;;;;;41.45;17.55;;;;;;;8.19;100.00;101121.63;5041953;28;20057;-70
2023/11/15 06:25:46;;;;;;;40.97;18.00;;;;;;;8.19;100.00;101126.91;5045595;28;20033;-71
2023/11/15 06:28:11;;;;;;;41.05;18.27;;;;;;;8.19;100.00;101121.63;5041479;28;20029;-70
2023/11/15 06:30:37;;;;;;;40.08;18.85;;;;;;;8.22;100.00;101121.69;5044028;28;20033;-70
2023/11/15 06:33:02;;;;;;;40.83;19.42;;;;;;;8.19;100.00;101126.91;5042207;28;20029;-71
2023/11/15 06:35:27;;;;;;;38.33;19.25;;;;;;;8.17;100.00;101110.19;5042971;28;20376;-70
2023/11/15 06:37:54;;;;;;;41.53;19.40;;;;;;;8.19;100.00;101122.50;5044700;28;20036;-71
2023/11/15 06:40:20;;;;;;;41.33;19.88;;;;;;;8.25;100.00;101132.25;5041559;28;20034;-71
2023/11/15 06:42:45;;;;;;;44.70;20.60;;;;;;;8.26;100.00;101130.53;5045058;28;20059;-71
2023/11/15 06:45:14;;;;;;;42.03;19.58;;;;;;;8.27;100.00;101129.66;5041771;28;20056;-72
2023/11/15 06:47:43;;;;;;;42.13;20.65;;;;;;;8.23;100.00;101134.00;5044200;28;20463;-72
2023/11/15 06:50:09;;;;;;;42.28;19.92;;;;;;;8.20;100.00;101140.09;5042208;28;20029;-72
2023/11/15 06:52:40;;;;;;;39.58;19.35;;;;;;;8.25;100.00;101145.44;5043354;28;20029;-72
2023/11/15 06:55:10;;;;;;;40.22;17.48;;;;;;;8.25;100.00;101157.72;5042257;28;20033;-72
2023/11/15 06:57:40;;;;;;;40.33;17.58;;;;;;;8.23;100.00;101149.81;5043696;28;20037;-72
2023/11/15 07:00:08;;;;;;;38.25;16.52;;;;;;;8.23;100.00;101144.53;5042269;28;20432;-72
2023/11/15 07:02:34;;;;;;;39.00;16.00;;;;;;;8.23;100.00;101162.97;5043145;28;20028;-72
2023/11/15 07:05:00;;;;;;;39.67;15.98;;;;;;;8.18;100.00;101156.72;5043216;28;20456;-72
2023/11/15 07:07:25;;;;;;;38.13;15.57;;;;;;;8.10;100.00;101164.47;5041896;28;20052;-72
2023/11/15 07:09:51;;;;;;;38.45;14.90;;;;;;;8.08;100.00;101168.84;5042880;28;20082;-72
2023/11/15 07:12:16;;;;;;;41.05;14.90;;;;;;;8.06;100.00;101174.91;5041470;28;20032;-72
2023/11/15 07:14:44;;;;;;;37.97;14.98;;;;;;;8.03;100.00;101178.38;5043933;28;20429;-72
2023/11/15 07:17:12;;;;;;;35.47;13.85;;;;;;;7.95;100.00;101194.03;5041789;28;20029;-72
2023/11/15 07:19:38;;;;;;;37.45;14.50;;;;;;;7.92;100.00;101179.88;5043584;28;20025;-72
2023/11/15 07:22:04;;;;;;;38.58;14.82;;;;;;;7.93;100.00;101198.34;5042352;28;20036;-72
2023/11/15 07:24:29;;;;;;;39.25;14.88;;;;;;;7.94;100.00;101200.13;5042107;28;20033;-72
2023/11/15 07:26:54;;;;;;;38.70;14.93;;;;;;;7.96;100.00;101197.53;5043793;28;20029;-72
2023/11/15 07:29:20;;;;;;;38.90;14.65;;;;;;;7.98;100.00;101203.69;5039732;28;20469;-72
2023/11/15 07:31:52;;;;;;;37.92;14.57;;;;;;;8.04;100.00;101201.22;5044399;28;20033;-72
2023/11/15 07:34:24;;;;;;;37.30;14.02;;;;;;;8.02;100.00;101211.72;5037574;28;20380;-72
2023/11/15 07:36:50;;;;;;;37.92;15.38;;;;;;;7.99;100.00;101208.13;5037087;28;20057;-72
2023/11/15 07:39:16;;;;;;;40.28;17.48;;;;;;;7.99;100.00;101202.84;5038551;28;20056;-72
2023/11/15 07:41:42;;;;;;;38.58;16.02;;;;;;;8.00;100.00;101202.00;5047868;28;20057;-72
2023/11/15 07:44:08;;;;;;;38.40;17.00;;;;;;;7.96;100.00;101213.31;5045900;28;20028;-72
2023/11/15 07:46:34;;;;;;;37.35;16.42;;;;;;;7.96;100.00;101216.84;5046607;28;20419;-72
2023/11/15 07:49:00;;;;;;;37.03;16.35;;;;;;;7.96;100.00;101214.19;5046969;28;20053;-72
2023/11/15 07:51:28;;;;;;;36.33;15.48;;;;;;;7.98;100.00;101219.50;5045392;28;20167;-72
2023/11/15 07:53:53;;;;;;;35.53;14.88;;;;;;;8.02;100.00;101230.16;5047512;28;20041;-72
2023/11/15 07:56:19;;;;;;;36.25;15.15;;;;;;;8.05;100.00;101217.91;5044747;28;20026;-72
2023/11/15 07:58:49;;;;;;;33.80;14.30;;;;;;;8.09;100.00;101225.00;5048170;28;20032;-72
2023/11/15 08:01:14;;;;;;;35.60;14.60;;;;;;;8.08;100.00;101228.50;5044492;28;20060;-72
2023/11/15 08:03:40;;;;;;;34.70;14.75;;;;;;;8.18;100.00;101231.38;5047398;28;20553;-72
2023/11/15 08:06:09;;;;;;;31.77;13.40;;;;;;;8.35;100.00;101238.69;5045446;28;20029;-72
2023/11/15 08:08:38;;;;;;;36.40;15.48;;;;;;;8.60;100.00;101241.84;5046404;28;20039;-72
2023/11/15 08:11:04;;;;;;;35.38;15.63;;;;;;;8.71;100.00;101253.47;5045956;28;20040;-72
2023/11/15 08:13:30;;;;;;;34.00;14.65;;;;;;;8.74;100.00;101258.81;5045761;28;20439;-72
2023/11/15 08:15:59;;;;;;;37.28;14.77;;;;;;;8.84;100.00;101244.94;5046785;28;20484;-72
2023/11/15 08:18:25;;;;;;;37.45;16.90;;;;;;;8.86;100.00;101248.47;5044924;28;20025;-72
2023/11/15 08:20:51;;;;;;;35.30;15.60;;;;;;;8.81;100.00;101263.34;5047937;28;20037;-72
2023/11/15 08:23:16;;;;;;;34.35;15.45;;;;;;;8.71;100.00;101269.31;5044005;28;20591;-72
2023/11/15 08:25:52;;;;;;;34.33;14.90;;;;;;;8.61;100.00;101268.22;5047250;28;20037;-72
2023/11/15 08:28:18;;;;;;;32.05;14.75;;;;;;;8.49;100.00;101260.97;5040449;28;20048;-72
2023/11/15 08:30:45;;;;;;;31.70;14.32;;;;;;;8.41;100.00;101265.16;5046961;28;20040;-72
2023/11/15 08:33:12;;;;;;;30.08;13.95;;;;;;;8.31;100.00;101263.19;5044545;28;20562;-72
2023/11/15 08:35:38;;;;;;;32.70;12.70;;;;;;;8.26;100.00;101268.38;5046182;28;20038;-72
2023/11/15 08:38:04;;;;;;;34.15;15.52;;;;;;;8.29;100.00;101270.19;5045520;28;20021;-72
2023/11/15 08:40:31;;;;;;;36.00;17.50;;;;;;;8.32;100.00;101270.25;5044943;28;20025;-72
2023/11/15 08:42:57;;;;;;;38.40;19.27;;;;;;;8.47;100.00;101275.84;5046572;28;20353;-72
2023/11/15 08:45:23;;;;;;;45.13;20.02;;;;;;;8.71;100.00;101280.72;5043956;28;20036;-72
2023/11/15 08:47:48;;;;;;;39.95;19.10;;;;;;;8.65;100.00;101284.97;5047053;28;20036;-72
2023/11/15 08:50:14;;;;;;;38.67;18.33;;;;;;;8.66;100.00;101281.50;5025484;28;20535;-72
2023/11/15 08:52:40;;;;;;;37.28;16.88;;;;;;;8.66;100.00;101277.09;5046047;28;20042;-72
2023/11/15 08:55:08;;;;;;;33.58;16.83;;;;;;;8.76;100.00;101277.28;5044878;28;20025;-72
2023/11/15 08:57:34;;;;;;;38.53;15.95;;;;;;;8.86;100.00;101289.78;5045465;28;20472;-72
2023/11/15 08:59:59;;;;;;;35.45;15.70;;;;;;;8.97;100.00;101288.22;5045547;28;20036;-72
2023/11/15 09:02:26;;;;;;;34.35;15.07;;;;;;;9.23;100.00;101285.13;5043997;28;20108;-72
2023/11/15 09:04:52;;;;;;;33.80;14.65;;;;;;;9.24;100.00;101285.16;5046684;28;20092;-72
2023/11/15 09:07:19;;;;;;;30.95;12.57;;;;;;;9.23;100.00;101277.22;5043327;28;20136;-72
2023/11/15 09:09:46;;;;;;;33.25;14.15;;;;;;;9.39;100.00;101287.19;5046666;28;20021;-72
2023/11/15 09:12:12;;;;;;;32.13;13.65;;;;;;;9.54;100.00;101293.59;5044050;28;20033;-73
2023/11/15 09:14:38;;;;;;;33.42;14.00;;;;;;;9.82;100.00;101296.63;5044162;28;20033;-73
2023/11/15 09:17:05;;;;;;;33.90;13.57;;;;;;;9.67;100.00;101295.53;5044821;28;20052;-73
2023/11/15 09:19:34;;;;;;;31.05;12.15;;;;;;;9.73;100.00;101292.97;5044650;28;20021;-73
2023/11/15 09:22:05;;;;;;;29.30;10.75;;;;;;;9.68;100.00;101291.13;5045137;28;20037;-73
2023/11/15 09:24:31;;;;;;;30.27;11.07;;;;;;;9.56;100.00;101298.00;5044272;28;20029;-73
2023/11/15 09:26:56;;;;;;;28.25;10.70;;;;;;;9.58;100.00;101292.72;5045752;28;20115;-73
2023/11/15 09:29:23;;;;;;;28.83;10.27;;;;;;;9.68;100.00;101294.66;5043065;28;20029;-72
2023/11/15 09:31:49;;;;;;;30.10;10.60;;;;;;;9.86;100.00;101301.97;5045272;28;20028;-72
2023/11/15 09:34:16;;;;;;;29.30;10.05;;;;;;;9.86;100.00;101299.34;5043021;28;20048;-73
2023/11/15 09:36:44;;;;;;;26.35;9.40;;;;;;;10.15;100.00;101303.25;5045426;28;20141;-73
2023/11/15 09:39:10;;;;;;;26.08;8.95;;;;;;;10.26;100.00;101306.91;5043445;28;20108;-73
2023/11/15 09:41:36;;;;;;;26.33;8.70;;;;;;;10.39;100.00;101302.72;5044753;28;20618;-73
2023/11/15 09:44:09;;;;;;;29.10;9.20;;;;;;;10.74;100.00;101296.94;5044739;28;20052;-73
2023/11/15 09:46:37;;;;;;;25.67;8.30;;;;;;;11.04;100.00;101301.66;5044346;28;20029;-72
2023/11/15 09:49:05;;;;;;;24.67;7.70;;;;;;;11.26;100.00;101296.59;5044778;28;20383;-73
2023/11/15 09:51:35;;;;;;;25.17;7.95;;;;;;;11.22;100.00;101310.66;5043622;28;20025;-72
2023/11/15 09:54:06;;;;;;;25.00;7.22;;;;;;;11.41;100.00;101298.47;5044425;28;20036;-72
2023/11/15 09:56:31;;;;;;;24.25;6.32;;;;;;;11.52;100.00;101289.72;5043748;28;20489;-72
2023/11/15 09:58:57;;;;;;;21.48;5.70;;;;;;;11.51;100.00;101311.78;5045009;28;20060;-72
2023/11/15 10:01:23;;;;;;;21.60;5.90;;;;;;;11.54;100.00;101280.91;5042408;28;20028;-72
2023/11/15 10:03:49;;;;;;;22.25;6.22;;;;;;;11.89;100.00;101278.50;5044779;28;20029;-73
2023/11/15 10:06:16;;;;;;;24.13;6.43;;;;;;;11.32;100.00;101281.63;5042533;28;20106;-72
2023/11/15 10:08:53;;;;;;;23.65;6.43;;;;;;;10.93;100.00;101282.16;5045242;28;20072;-73
2023/11/15 10:11:20;;;;;;;23.40;6.85;;;;;;;11.26;100.00;101300.09;5033646;28;20115;-72
2023/11/15 10:13:49;;;;;;;22.77;6.72;;;;;;;11.41;100.00;101291.41;5043010;28;20029;-72
2023/11/15 10:16:30;;;;;;;23.70;6.45;;;;;;;11.34;100.00;101285.19;5044939;28;20052;-72
2023/11/15 10:18:56;;;;;;;23.95;7.10;;;;;;;11.80;100.00;101295.22;5044021;28;20112;-72
2023/11/15 10:21:22;;;;;;;21.92;7.13;;;;;;;11.64;100.00;101311.88;5043624;28;20033;-72
2023/11/15 10:23:51;;;;;;;22.73;6.28;;;;;;;11.26;100.00;101293.94;5043029;28;20025;-73
2023/11/15 10:26:16;;;;;;;22.85;6.53;;;;;;;11.15;100.00;101310.59;5044275;28;20483;-72
2023/11/15 10:28:44;;;;;;;22.15;6.35;;;;;;;11.31;100.00;101308.06;5040750;28;20028;-72
2023/11/15 10:31:15;;;;;;;22.17;6.60;;;;;;;11.34;100.00;101293.13;5045075;28;20094;-70
2023/11/15 10:33:50;;;;;;;22.47;6.90;;;;;;;11.44;100.00;101296.72;5038533;28;20037;-69
2023/11/15 10:36:16;;;;;;;23.75;6.72;;;;;;;11.40;100.00;101300.22;5044043;28;20037;-72
2023/11/15 10:39:01;;;;;;;22.83;6.93;;;;;;;11.42;100.00;101321.41;5042016;28;20037;-73
2023/11/15 10:41:30;;;;;;;23.10;6.72;;;;;;;11.39;100.00;101295.81;5042263;28;20037;-70
2023/11/15 10:43:56;;;;;;;22.60;6.38;;;;;;;11.53;100.00;101293.25;5043278;28;20080;-70
2023/11/15 10:46:29;;;;;;;22.35;6.00;;;;;;;11.49;100.00;101302.06;5042595;28;20424;-69
2023/11/15 10:48:56;;;;;;;;;;;;;;;11.79;100.00;101306.66;5044620;28;20033;-70
2023/11/15 10:51:23;;;;;;;23.10;5.82;;;;;;;12.32;100.00;101299.94;5042548;28;19917;-70
2023/11/15 10:53:50;;;;;;;22.10;5.75;;;;;;;13.27;100.00;101298.41;5043103;28;20033;-70
2023/11/15 10:56:17;;;;;;;22.75;5.35;;;;;;;12.98;100.00;101296.59;5042160;28;20448;-70
2023/11/15 10:58:46;;;;;;;21.27;5.38;;;;;;;12.36;100.00;101285.84;5042453;28;20032;-70
2023/11/15 11:01:14;;;;;;;21.00;5.20;;;;;;;12.18;100.00;101296.34;5043595;28;20017;-69
2023/11/15 11:03:40;;;;;;;22.10;5.53;;;;;;;12.29;100.00;101288.44;5040405;28;20021;-69
2023/11/15 11:06:16;;;;;;;21.02;5.05;;;;;;;12.40;100.00;101296.44;5044638;28;20029;-69
2023/11/15 11:09:10;;;;;;;21.05;5.47;;;;;;;11.84;100.00;101304.94;5042206;28;20030;-69